Portada
METAR-TAF:

METAR-TAF

Aeroports :

Sylacauga, Alabama, Estats Units d'Amèrica

latitud: 33-10-19N, longitud: 086-18-20W, altitud: 173 m

Observació

L'informe es va fer fa 25 minuts, a les 16:35 UTC
Vent 9 kt del Est/Sud-Est
Temperatura 28°C
Humitat 62%
Pressió 1022 hPa
Visibilitat: 16.1 km
Cel ennuvolat a una alçada de 3400 ft
Cel ennuvolat a una alçada de 5500 ft
Cel cobert a una alçada de 11000 ft

METAR: KSCD 011635Z AUTO 12009KT 10SM BKN034 BKN055 OVC110 28/20 A3019 RMK AO2 T02760197

Hora: 12:00 (17:00 UTC)


TAF: manca

Observacions i pronòstics meteorològics de més de 4000 aeroports (METAR i TAF).

Les estacions disponibles són els punts grocs i vermells al mapa.

Posi el ratolí al punt desitjat per veure el nom de l'estació.

Feu clic per veure les observacions i els pronòstics meteorològics.

Per canviar el mapa: feu clic els botons verds amb una creu de color negre per apropar; al botó verd amb un guió per allunyar la imatge; o en les fletxes verdes per a mapes adjacents.


METAR-TAF: